createdAt,value
2018-02-09T00:00:14.369Z,44.37
2018-02-09T00:02:41.081Z,42.87
2018-02-09T00:05:07.820Z,40.80
2018-02-09T00:07:34.501Z,43.37
2018-02-09T00:10:01.197Z,44.50
2018-02-09T00:12:28.169Z,43.87
2018-02-09T00:14:54.829Z,41.90
2018-02-09T00:17:21.742Z,45.10
2018-02-09T00:19:48.486Z,44.53
2018-02-09T00:22:16.175Z,43.80
2018-02-09T00:24:42.884Z,43.57
2018-02-09T00:27:09.605Z,43.63
2018-02-09T00:29:36.288Z,43.23
2018-02-09T00:32:02.967Z,43.20
2018-02-09T00:34:29.720Z,43.97
2018-02-09T00:36:56.586Z,42.90
2018-02-09T00:39:23.374Z,42.57
2018-02-09T00:41:50.151Z,43.73
2018-02-09T00:44:16.846Z,43.93
2018-02-09T00:46:43.645Z,43.17
2018-02-09T00:49:11.114Z,44.20
2018-02-09T00:51:37.833Z,43.07
2018-02-09T00:54:04.570Z,44.00
2018-02-09T00:56:31.271Z,42.93
2018-02-09T00:58:58.019Z,43.77
2018-02-09T01:01:24.790Z,42.77
2018-02-09T01:03:51.587Z,46.60
2018-02-09T01:06:18.276Z,41.60
2018-02-09T01:08:45.042Z,42.97
2018-02-09T01:11:11.749Z,40.87
2018-02-09T01:13:38.889Z,46.23
2018-02-09T01:16:05.682Z,45.23
2018-02-09T01:18:32.407Z,45.97
2018-02-09T01:20:59.092Z,44.23
2018-02-09T01:23:25.826Z,43.67
2018-02-09T01:25:52.628Z,44.53
2018-02-09T01:28:19.520Z,47.50
2018-02-09T01:30:46.202Z,47.00
2018-02-09T01:33:12.997Z,43.13
2018-02-09T01:35:39.677Z,43.03
2018-02-09T01:38:07.285Z,44.07
2018-02-09T01:40:34.058Z,43.70
2018-02-09T01:43:00.749Z,45.33
2018-02-09T01:45:27.466Z,44.93
2018-02-09T01:47:54.164Z,45.13
2018-02-09T01:50:20.892Z,45.67
2018-02-09T01:52:47.596Z,46.43
2018-02-09T01:55:14.417Z,46.17
2018-02-09T01:57:41.120Z,45.00
2018-02-09T02:00:07.830Z,44.70
2018-02-09T02:02:34.536Z,44.80
2018-02-09T02:05:01.230Z,45.10
2018-02-09T02:07:27.944Z,46.47
2018-02-09T02:09:54.694Z,46.00
2018-02-09T02:12:21.470Z,46.10
2018-02-09T02:14:48.282Z,45.40
2018-02-09T02:17:14.992Z,47.30
2018-02-09T02:19:41.736Z,50.00
2018-02-09T02:22:08.494Z,47.20
2018-02-09T02:24:35.266Z,46.93
2018-02-09T02:27:01.994Z,47.10
2018-02-09T02:29:28.684Z,45.83
2018-02-09T02:31:55.412Z,45.20
2018-02-09T02:34:22.170Z,49.70
2018-02-09T02:36:49.015Z,45.77
2018-02-09T02:39:15.726Z,46.60
2018-02-09T02:41:42.445Z,45.90
2018-02-09T02:44:09.123Z,46.93
2018-02-09T02:46:35.807Z,46.13
2018-02-09T02:49:02.498Z,46.93
2018-02-09T02:51:29.217Z,46.77
2018-02-09T02:53:56.143Z,47.30
2018-02-09T02:56:22.885Z,46.00
2018-02-09T02:58:49.689Z,46.80
2018-02-09T03:01:16.387Z,47.70
2018-02-09T03:03:43.071Z,45.40
2018-02-09T03:06:09.842Z,43.53
2018-02-09T03:08:37.191Z,45.87
2018-02-09T03:11:04.143Z,46.73
2018-02-09T03:13:31.489Z,44.30
2018-02-09T03:15:58.330Z,47.50
2018-02-09T03:18:25.102Z,45.80
2018-02-09T03:20:51.912Z,45.33
2018-02-09T03:23:18.688Z,46.00
2018-02-09T03:25:45.411Z,45.37
2018-02-09T03:28:12.231Z,46.10
2018-02-09T03:30:39.179Z,45.07
2018-02-09T03:33:06.046Z,43.90
2018-02-09T03:35:33.312Z,46.40
2018-02-09T03:38:00.159Z,47.77
2018-02-09T03:40:26.861Z,44.30
2018-02-09T03:42:53.556Z,44.63
2018-02-09T03:45:20.350Z,43.27
2018-02-09T03:47:47.064Z,45.43
2018-02-09T03:50:13.788Z,46.13
2018-02-09T03:52:40.450Z,42.53
2018-02-09T03:55:07.165Z,44.00
2018-02-09T03:57:33.878Z,47.10
2018-02-09T04:00:00.570Z,46.37
2018-02-09T04:02:27.254Z,49.37
2018-02-09T04:04:54.021Z,46.00
2018-02-09T04:07:20.718Z,48.00
2018-02-09T04:09:47.430Z,47.03
2018-02-09T04:12:14.143Z,45.37
2018-02-09T04:14:40.873Z,45.47
2018-02-09T04:17:07.668Z,45.33
2018-02-09T04:19:34.463Z,45.13
2018-02-09T04:22:01.169Z,46.80
2018-02-09T04:24:27.858Z,45.40
2018-02-09T04:26:54.589Z,46.43
2018-02-09T04:29:21.270Z,44.63
2018-02-09T04:31:48.784Z,45.70
2018-02-09T04:34:15.506Z,47.63
2018-02-09T04:36:42.255Z,47.33
2018-02-09T04:39:09.053Z,44.87
2018-02-09T04:41:35.862Z,44.53
2018-02-09T04:44:02.557Z,44.70
2018-02-09T04:46:29.278Z,44.30
2018-02-09T04:48:56.004Z,43.13
2018-02-09T04:51:22.715Z,44.40
2018-02-09T04:53:50.415Z,45.50
2018-02-09T04:56:17.121Z,49.50
2018-02-09T04:58:43.793Z,43.77
2018-02-09T05:01:10.537Z,47.87
2018-02-09T05:03:37.208Z,44.90
2018-02-09T05:06:03.887Z,45.50
2018-02-09T05:08:30.618Z,49.17
2018-02-09T05:10:57.372Z,44.77
2018-02-09T05:13:24.066Z,47.00
2018-02-09T05:15:50.780Z,47.83
2018-02-09T05:18:17.540Z,44.57
2018-02-09T05:20:44.216Z,45.33
2018-02-09T05:23:10.924Z,46.57
2018-02-09T05:25:37.628Z,47.00
2018-02-09T05:28:04.308Z,48.20
2018-02-09T05:30:31.008Z,44.13
2018-02-09T05:32:57.718Z,47.53
2018-02-09T05:35:24.545Z,45.00
2018-02-09T05:37:51.290Z,48.47
2018-02-09T05:40:17.989Z,46.40
2018-02-09T05:42:44.720Z,44.97
2018-02-09T05:45:11.395Z,47.70
2018-02-09T05:47:38.130Z,45.37
2018-02-09T05:50:04.813Z,44.70
2018-02-09T05:52:31.540Z,44.80
2018-02-09T05:54:58.247Z,47.10
2018-02-09T05:57:24.982Z,47.10
2018-02-09T05:59:51.644Z,47.00
2018-02-09T06:02:18.389Z,46.40
2018-02-09T06:04:45.060Z,44.67
2018-02-09T06:07:11.808Z,46.60
2018-02-09T06:09:38.502Z,45.97
2018-02-09T06:12:05.185Z,45.57
2018-02-09T06:14:31.850Z,45.20
2018-02-09T06:16:58.649Z,45.90
2018-02-09T06:19:25.375Z,46.90
2018-02-09T06:21:52.153Z,46.27
2018-02-09T06:24:19.209Z,46.70
2018-02-09T06:26:45.889Z,46.00
2018-02-09T06:29:12.555Z,42.97
2018-02-09T06:31:39.376Z,40.70
2018-02-09T06:34:06.075Z,41.83
2018-02-09T06:36:32.925Z,41.27
2018-02-09T06:38:59.689Z,38.57
2018-02-09T06:41:26.431Z,43.47
2018-02-09T06:43:53.106Z,43.10
2018-02-09T06:46:19.812Z,44.77
2018-02-09T06:48:46.480Z,44.20
2018-02-09T06:51:13.207Z,43.87
2018-02-09T06:53:40.026Z,46.60
2018-02-09T06:56:06.701Z,44.00
2018-02-09T06:58:33.404Z,43.33
2018-02-09T07:01:00.129Z,42.40
2018-02-09T07:03:26.817Z,41.30
2018-02-09T07:05:53.517Z,41.80
2018-02-09T07:08:20.255Z,39.83
2018-02-09T07:10:47.264Z,39.37
2018-02-09T07:13:13.959Z,41.20
2018-02-09T07:15:40.707Z,39.77
2018-02-09T07:18:07.537Z,42.33
2018-02-09T07:20:34.268Z,39.50
2018-02-09T07:23:00.944Z,42.13
2018-02-09T07:25:27.638Z,37.83
2018-02-09T07:27:54.339Z,38.30
2018-02-09T07:32:50.399Z,37.03
2018-02-09T07:35:17.180Z,35.23
2018-02-09T07:37:44.138Z,35.77
2018-02-09T07:40:10.822Z,36.77
2018-02-09T07:42:37.529Z,34.70
2018-02-09T07:45:04.386Z,34.13
2018-02-09T07:47:31.070Z,33.33
2018-02-09T07:49:57.837Z,35.60
2018-02-09T07:52:24.604Z,34.47
2018-02-09T07:54:51.278Z,32.17
2018-02-09T07:57:18.101Z,32.97
2018-02-09T07:59:44.927Z,32.40
2018-02-09T08:02:11.598Z,33.63
2018-02-09T08:04:38.269Z,30.97
2018-02-09T08:07:04.991Z,33.17
2018-02-09T08:09:31.685Z,31.20
2018-02-09T08:11:58.406Z,31.10
2018-02-09T08:14:25.225Z,31.80
2018-02-09T08:16:51.965Z,32.57
2018-02-09T08:19:18.763Z,30.57
2018-02-09T08:21:45.610Z,31.10
2018-02-09T08:24:12.367Z,31.30
2018-02-09T08:26:39.032Z,29.77
2018-02-09T08:29:05.884Z,30.57
2018-02-09T08:31:32.569Z,32.17
2018-02-09T08:33:59.290Z,31.60
2018-02-09T08:36:26.102Z,31.50
2018-02-09T08:38:53.221Z,30.57
2018-02-09T08:41:19.998Z,31.33
2018-02-09T08:43:46.693Z,27.87
2018-02-09T08:46:13.398Z,29.43
2018-02-09T08:48:40.148Z,29.57
2018-02-09T08:51:06.864Z,29.23
2018-02-09T08:53:33.683Z,29.30
2018-02-09T08:56:00.380Z,29.20
2018-02-09T08:58:27.055Z,27.73
2018-02-09T09:00:53.904Z,32.20
2018-02-09T09:03:20.597Z,28.13
2018-02-09T09:05:47.303Z,28.90
2018-02-09T09:08:14.017Z,31.20
2018-02-09T09:10:40.722Z,28.40
2018-02-09T09:13:07.420Z,29.43
2018-02-09T09:15:34.098Z,29.63
2018-02-09T09:18:01.129Z,29.50
2018-02-09T09:20:27.837Z,30.07
2018-02-09T09:22:54.528Z,30.53
2018-02-09T09:25:21.252Z,30.87
2018-02-09T09:27:48.138Z,31.30
2018-02-09T09:30:14.899Z,34.00
2018-02-09T09:32:41.592Z,32.80
2018-02-09T09:35:08.326Z,32.40
2018-02-09T09:37:35.118Z,32.10
2018-02-09T09:40:01.883Z,34.33
2018-02-09T09:42:28.609Z,34.10
2018-02-09T09:44:55.326Z,33.83
2018-02-09T09:47:22.075Z,34.33
2018-02-09T09:49:48.773Z,33.90
2018-02-09T09:52:15.447Z,35.63
2018-02-09T09:54:42.192Z,34.93
2018-02-09T09:57:08.990Z,35.17
2018-02-09T09:59:36.036Z,37.27
2018-02-09T10:02:02.774Z,36.70
2018-02-09T10:04:29.471Z,36.10
2018-02-09T10:06:56.211Z,36.50
2018-02-09T10:09:22.890Z,36.17
2018-02-09T10:11:49.624Z,37.17
2018-02-09T10:14:16.357Z,37.70
2018-02-09T10:16:43.109Z,39.97
2018-02-09T10:19:09.809Z,37.87
2018-02-09T10:21:36.547Z,36.93
2018-02-09T10:24:03.247Z,37.03
2018-02-09T10:26:29.949Z,35.73
2018-02-09T10:28:56.663Z,35.47
2018-02-09T10:31:23.506Z,36.03
2018-02-09T10:33:50.202Z,36.17
2018-02-09T10:36:16.919Z,36.07
2018-02-09T10:38:43.634Z,35.93
2018-02-09T10:41:10.322Z,39.27
2018-02-09T10:43:37.040Z,40.80
2018-02-09T10:46:03.837Z,40.30
2018-02-09T10:48:30.552Z,38.50
2018-02-09T10:50:57.338Z,41.00
2018-02-09T10:53:24.091Z,37.67
2018-02-09T10:55:50.826Z,39.13
2018-02-09T10:58:17.606Z,38.13
2018-02-09T11:00:50.122Z,36.67
2018-02-09T11:03:16.862Z,33.17
2018-02-09T11:05:43.728Z,32.97
2018-02-09T11:08:10.478Z,35.10
2018-02-09T11:10:42.761Z,34.27
2018-02-09T11:13:15.126Z,35.40
2018-02-09T11:15:41.847Z,36.17
2018-02-09T11:18:08.539Z,35.37
2018-02-09T11:20:35.506Z,32.70
2018-02-09T11:23:02.393Z,34.87
2018-02-09T11:25:29.149Z,35.60
2018-02-09T11:27:56.114Z,35.07
2018-02-09T11:30:22.810Z,35.90
2018-02-09T11:32:49.793Z,38.97
2018-02-09T11:35:16.507Z,34.03
2018-02-09T11:37:43.253Z,36.27
2018-02-09T11:40:09.985Z,35.63
2018-02-09T11:42:36.691Z,37.77
2018-02-09T11:45:03.450Z,35.67
2018-02-09T11:47:30.199Z,37.00
2018-02-09T11:49:57.704Z,37.20
2018-02-09T11:52:24.586Z,34.97
2018-02-09T11:54:51.281Z,37.57
2018-02-09T11:57:18.559Z,36.87
2018-02-09T11:59:45.930Z,38.63
2018-02-09T12:02:12.940Z,36.17
2018-02-09T12:04:39.709Z,38.00
2018-02-09T12:07:06.630Z,35.60
2018-02-09T12:09:33.494Z,34.47
2018-02-09T12:12:00.301Z,37.50
2018-02-09T12:14:26.987Z,38.07
2018-02-09T12:16:54.164Z,35.20
2018-02-09T12:19:20.898Z,35.20
2018-02-09T12:21:47.983Z,36.63
2018-02-09T12:24:14.740Z,35.80
2018-02-09T12:26:41.481Z,36.50
2018-02-09T12:29:10.118Z,35.07
2018-02-09T12:31:39.569Z,35.90
2018-02-09T12:34:06.541Z,34.90
2018-02-09T12:36:33.351Z,33.83
2018-02-09T12:39:00.072Z,35.63
2018-02-09T12:41:26.768Z,36.57
2018-02-09T12:43:53.692Z,33.47
2018-02-09T12:46:20.475Z,36.00
2018-02-09T12:48:47.375Z,34.80
2018-02-09T12:51:14.501Z,33.63
2018-02-09T12:53:41.466Z,35.20
2018-02-09T12:56:08.872Z,37.43
2018-02-09T12:58:35.606Z,31.67
2018-02-09T13:01:02.361Z,34.23
2018-02-09T13:03:29.115Z,33.77
2018-02-09T13:05:55.849Z,36.47
2018-02-09T13:08:22.749Z,33.73
2018-02-09T13:10:49.516Z,34.73
2018-02-09T13:13:16.291Z,34.20
2018-02-09T13:15:43.175Z,31.80
2018-02-09T13:18:15.741Z,34.40
2018-02-09T13:20:42.524Z,35.47
2018-02-09T13:23:15.251Z,34.60
2018-02-09T13:25:42.096Z,33.00
2018-02-09T13:28:09.036Z,34.90
2018-02-09T13:30:35.826Z,34.20
2018-02-09T13:33:08.465Z,35.63
2018-02-09T13:35:35.369Z,35.40
2018-02-09T13:38:02.091Z,31.57
2018-02-09T13:40:29.137Z,33.87
2018-02-09T13:42:56.551Z,34.23
2018-02-09T13:45:23.504Z,35.13
2018-02-09T13:47:50.284Z,34.07
2018-02-09T13:50:16.981Z,35.20
2018-02-09T13:52:43.818Z,35.57
2018-02-09T13:55:10.737Z,34.53
2018-02-09T13:57:37.810Z,34.43
2018-02-09T14:00:04.563Z,33.03
2018-02-09T14:02:31.311Z,33.20
2018-02-09T14:04:58.122Z,31.80
2018-02-09T14:07:25.220Z,34.30
2018-02-09T14:09:52.380Z,34.03
2018-02-09T14:12:19.177Z,32.40
2018-02-09T14:14:45.994Z,31.77
2018-02-09T14:17:12.921Z,29.77
2018-02-09T14:19:39.979Z,31.90
2018-02-09T14:22:06.793Z,32.10
2018-02-09T14:24:33.567Z,32.97
2018-02-09T14:27:00.490Z,33.17
2018-02-09T14:29:27.273Z,32.67
2018-02-09T14:31:54.210Z,31.50
2018-02-09T14:34:21.406Z,31.83
2018-02-09T14:36:48.168Z,30.90
2018-02-09T14:39:14.945Z,30.17
2018-02-09T14:41:41.785Z,29.93
2018-02-09T14:44:08.519Z,30.90
2018-02-09T14:46:35.219Z,29.33
2018-02-09T14:49:02.039Z,29.60
2018-02-09T14:51:28.847Z,27.33
2018-02-09T14:53:55.536Z,30.07
2018-02-09T14:56:22.391Z,28.87
2018-02-09T14:58:49.144Z,29.67
2018-02-09T15:01:16.098Z,30.33
2018-02-09T15:03:43.645Z,29.27
2018-02-09T15:06:10.647Z,27.30
2018-02-09T15:08:37.467Z,30.03
2018-02-09T15:11:04.552Z,31.13
2018-02-09T15:13:31.266Z,29.10
2018-02-09T15:15:58.109Z,29.90
2018-02-09T15:18:24.844Z,28.20
2018-02-09T15:20:51.572Z,31.47
2018-02-09T15:23:18.438Z,29.10
2018-02-09T15:25:45.324Z,29.73
2018-02-09T15:28:12.069Z,28.80
2018-02-09T15:30:39.105Z,29.20
2018-02-09T15:33:05.838Z,30.83
2018-02-09T15:35:32.584Z,29.10
2018-02-09T15:37:59.300Z,26.43
2018-02-09T15:40:26.002Z,26.80
2018-02-09T15:42:52.781Z,27.27
2018-02-09T15:45:19.652Z,26.30
2018-02-09T15:47:46.559Z,28.27
2018-02-09T15:50:13.384Z,26.30
2018-02-09T15:52:40.911Z,29.13
2018-02-09T15:55:07.630Z,26.90
2018-02-09T15:57:34.490Z,26.70
2018-02-09T16:00:01.205Z,27.37
2018-02-09T16:02:28.002Z,26.20
2018-02-09T16:04:54.756Z,27.70
2018-02-09T16:07:21.714Z,27.40
2018-02-09T16:09:48.506Z,26.90
2018-02-09T16:12:15.273Z,27.80
2018-02-09T16:14:42.130Z,28.67
2018-02-09T16:17:08.985Z,28.57
2018-02-09T16:19:35.727Z,27.83
2018-02-09T16:22:02.428Z,29.63
2018-02-09T16:24:29.143Z,30.40
2018-02-09T16:26:56.251Z,29.67
2018-02-09T16:29:23.235Z,30.93
2018-02-09T16:31:49.949Z,30.60
2018-02-09T16:34:16.730Z,29.57
2018-02-09T16:36:43.586Z,30.10
2018-02-09T16:39:10.337Z,29.00
2018-02-09T16:41:37.042Z,29.33
2018-02-09T16:44:04.501Z,30.00
2018-02-09T16:46:31.213Z,27.67
2018-02-09T16:48:57.937Z,29.27
2018-02-09T16:51:24.742Z,29.93
2018-02-09T16:53:51.576Z,30.97
2018-02-09T16:56:18.264Z,28.90
2018-02-09T16:58:45.028Z,29.50
2018-02-09T17:01:11.863Z,30.07
2018-02-09T17:03:38.569Z,29.10
2018-02-09T17:06:05.754Z,30.23
2018-02-09T17:08:32.787Z,31.63
2018-02-09T17:10:59.492Z,32.70
2018-02-09T17:13:26.308Z,32.10
2018-02-09T17:15:53.008Z,34.37
2018-02-09T17:18:19.823Z,30.87
2018-02-09T17:20:46.580Z,33.07
2018-02-09T17:23:13.381Z,31.70
2018-02-09T17:25:40.108Z,31.60
2018-02-09T17:28:06.927Z,32.13
2018-02-09T17:30:33.683Z,34.47
2018-02-09T17:33:00.568Z,31.60
2018-02-09T17:35:27.289Z,33.17
2018-02-09T17:37:53.983Z,31.67
2018-02-09T17:40:20.678Z,31.70
2018-02-09T17:42:47.572Z,30.90
2018-02-09T17:45:14.459Z,31.87
2018-02-09T17:47:41.253Z,32.07
2018-02-09T17:50:08.003Z,30.37
2018-02-09T17:52:34.876Z,28.13
2018-02-09T17:55:01.687Z,30.97
2018-02-09T17:57:28.813Z,29.93
2018-02-09T17:59:57.052Z,30.33
2018-02-09T18:02:23.946Z,32.67
2018-02-09T18:04:50.818Z,31.57
2018-02-09T18:07:17.723Z,32.13
2018-02-09T18:09:44.604Z,30.10
2018-02-09T18:12:11.399Z,29.83
2018-02-09T18:14:38.089Z,29.93
2018-02-09T18:17:04.798Z,28.87
2018-02-09T18:19:31.544Z,29.73
2018-02-09T18:21:58.356Z,31.30
2018-02-09T18:24:25.204Z,30.33
2018-02-09T18:26:52.937Z,29.83
2018-02-09T18:29:21.002Z,29.97
2018-02-09T18:31:47.885Z,31.23
2018-02-09T18:34:14.626Z,30.67
2018-02-09T18:36:41.326Z,30.47
2018-02-09T18:39:08.017Z,31.60
2018-02-09T18:41:34.828Z,31.80
2018-02-09T18:44:01.665Z,30.07
2018-02-09T18:46:29.224Z,32.40
2018-02-09T18:48:55.928Z,30.30
2018-02-09T18:51:22.719Z,33.20
2018-02-09T18:53:49.465Z,32.43
2018-02-09T18:56:16.267Z,33.50
2018-02-09T18:58:42.957Z,34.23
2018-02-09T19:01:09.763Z,32.90
2018-02-09T19:03:36.498Z,33.20
2018-02-09T19:06:03.236Z,35.60
2018-02-09T19:08:30.013Z,32.87
2018-02-09T19:10:56.957Z,32.47
2018-02-09T19:13:23.722Z,33.57
2018-02-09T19:15:50.442Z,34.63
2018-02-09T19:18:17.570Z,33.00
2018-02-09T19:20:44.364Z,32.80
2018-02-09T19:23:11.405Z,35.97
2018-02-09T19:25:38.470Z,36.60
2018-02-09T19:28:08.999Z,32.90
2018-02-09T19:30:35.950Z,34.30
2018-02-09T19:33:02.722Z,35.13
2018-02-09T19:35:31.582Z,35.53
2018-02-09T19:37:58.324Z,36.80
2018-02-09T19:40:25.145Z,33.83
2018-02-09T19:42:52.321Z,35.43
2018-02-09T19:45:19.090Z,35.57
2018-02-09T19:47:45.889Z,38.37
2018-02-09T19:50:13.021Z,35.83
2018-02-09T19:52:39.840Z,34.40
2018-02-09T19:55:06.849Z,36.63
2018-02-09T19:57:33.642Z,34.80
2018-02-09T20:02:32.272Z,35.17
2018-02-09T20:04:59.104Z,35.80
2018-02-09T20:07:25.916Z,34.40
2018-02-09T20:09:53.027Z,38.40
2018-02-09T20:12:19.813Z,36.27
2018-02-09T20:14:46.662Z,37.07
2018-02-09T20:17:13.495Z,37.47
2018-02-09T20:19:40.341Z,35.60
2018-02-09T20:22:08.278Z,39.90
2018-02-09T20:24:35.047Z,35.17
2018-02-09T20:27:02.223Z,36.77
2018-02-09T20:29:31.358Z,35.53
2018-02-09T20:31:58.510Z,36.00
2018-02-09T20:34:25.688Z,35.37
2018-02-09T20:36:52.602Z,35.83
2018-02-09T20:39:19.456Z,35.77
2018-02-09T20:41:46.252Z,36.30
2018-02-09T20:44:13.793Z,38.50
2018-02-09T20:46:40.577Z,35.27
2018-02-09T20:49:07.478Z,35.90
2018-02-09T20:51:34.201Z,38.60
2018-02-09T20:54:00.909Z,35.40
2018-02-09T20:56:31.999Z,35.90
2018-02-09T20:58:58.745Z,37.70
2018-02-09T21:01:25.614Z,34.00
2018-02-09T21:03:52.480Z,36.10
2018-02-09T21:06:19.316Z,36.83
2018-02-09T21:08:46.012Z,37.73
2018-02-09T21:11:13.000Z,37.90
2018-02-09T21:13:39.933Z,37.70
2018-02-09T21:16:06.640Z,37.00
2018-02-09T21:18:33.382Z,38.13
2018-02-09T21:21:00.046Z,36.70
2018-02-09T21:23:27.546Z,35.47
2018-02-09T21:25:54.342Z,36.70
2018-02-09T21:28:21.249Z,37.10
2018-02-09T21:30:47.983Z,37.80
2018-02-09T21:33:14.784Z,35.93
2018-02-09T21:35:41.577Z,37.47
2018-02-09T21:38:08.246Z,37.97
2018-02-09T21:40:35.027Z,36.60
2018-02-09T21:43:01.845Z,37.53
2018-02-09T21:45:29.382Z,36.73
2018-02-09T21:47:56.063Z,37.57
2018-02-09T21:50:22.887Z,36.47
2018-02-09T21:52:49.707Z,36.90
2018-02-09T21:55:16.446Z,38.93
2018-02-09T21:57:43.174Z,37.50
2018-02-09T22:00:09.910Z,35.40
2018-02-09T22:02:36.894Z,39.00
2018-02-09T22:10:12.509Z,37.83
2018-02-09T22:12:39.339Z,37.13
2018-02-09T22:15:06.093Z,36.93
2018-02-09T22:17:32.804Z,36.70
2018-02-09T22:19:59.687Z,40.47
2018-02-09T22:22:26.468Z,36.67
2018-02-09T22:24:53.257Z,38.27
2018-02-09T22:27:20.233Z,34.90
2018-02-09T22:29:47.005Z,36.03
2018-02-09T22:32:15.055Z,37.27
2018-02-09T22:34:41.888Z,35.60
2018-02-09T22:37:12.009Z,33.40
2018-02-09T22:39:42.674Z,35.63
2018-02-09T22:42:09.918Z,35.60
2018-02-09T22:44:37.142Z,34.77
2018-02-09T22:47:06.212Z,33.00
2018-02-09T22:49:32.994Z,34.67
2018-02-09T22:51:59.709Z,34.80
2018-02-09T22:54:28.281Z,33.20
2018-02-09T22:56:55.068Z,33.53
2018-02-09T22:59:21.990Z,33.70
2018-02-09T23:01:48.959Z,34.67
2018-02-09T23:04:15.717Z,32.30
2018-02-09T23:06:42.491Z,33.97
2018-02-09T23:09:09.252Z,30.43
2018-02-09T23:11:35.941Z,31.27
2018-02-09T23:14:02.680Z,31.77
2018-02-09T23:16:29.510Z,27.47
2018-02-09T23:18:56.310Z,30.77
2018-02-09T23:21:23.054Z,31.50
2018-02-09T23:23:49.797Z,32.30
2018-02-09T23:26:16.488Z,32.47
2018-02-09T23:28:43.246Z,31.50
2018-02-09T23:31:10.071Z,30.03
2018-02-09T23:33:37.482Z,31.47
2018-02-09T23:36:04.352Z,29.77
2018-02-09T23:38:31.071Z,30.30
2018-02-09T23:40:57.974Z,30.90
2018-02-09T23:43:25.559Z,31.50
2018-02-09T23:45:52.796Z,31.43
2018-02-09T23:48:19.690Z,30.80
2018-02-09T23:50:46.447Z,32.67
2018-02-09T23:53:13.218Z,31.37
2018-02-09T23:55:40.006Z,29.70
2018-02-09T23:58:06.742Z,30.40
